KUNV/SCE METAR and TAF weather

Enter ICAO airport designator
Station Type Date Time Source
KUNV METAR 2020/07/05 15:53 UTC NOAA

KUNV 051553Z 00000KT 10SM SKC 28/19 A3005


Station Type Date Time Source
KUNV Decoded METAR 2020/07/05 15:53 UTC NOAA

State College, University Park Airport, PA, United States (KUNV) 40-51N 077-51W
Jul 05, 2020 - 11:53 AM EDT / 2020.07.05 1553 UTC
Wind: Calm:0
Visibility: 10 mile(s):0
Sky conditions: clear
Temperature: 82 F (28 C)
Dew Point: 66 F (19 C)
Relative Humidity: 58%
Pressure (altimeter): 30.05 in. Hg (1017 hPa)
ob: KUNV 051553Z 00000KT 10SM SKC 28/19 A3005
cycle: 16

Station Type Date Time Source
KUNV TAF 2020/07/05 15:12 UTC NOAA

TAF
AMD KUNV 051511Z 0515/0612 20003KT P6SM FEW250
FM060100 00000KT P6SM SKC

Example: see airport list